sensor_id;sensor_type;location;lat;lon;timestamp;P1;durP1;ratioP1;P2;durP2;ratioP2
13941;SDS011;7043;51.630;7.254;2023-05-07T00:01:35;32.47;;;29.40;;
13941;SDS011;7043;51.630;7.254;2023-05-07T00:04:01;32.77;;;29.77;;
13941;SDS011;7043;51.630;7.254;2023-05-07T00:06:28;32.77;;;29.87;;
13941;SDS011;7043;51.630;7.254;2023-05-07T00:08:55;33.53;;;30.40;;
13941;SDS011;7043;51.630;7.254;2023-05-07T00:11:22;33.93;;;30.77;;
13941;SDS011;7043;51.630;7.254;2023-05-07T00:13:48;36.53;;;33.17;;
13941;SDS011;7043;51.630;7.254;2023-05-07T00:16:14;35.10;;;31.80;;
13941;SDS011;7043;51.630;7.254;2023-05-07T00:18:40;37.30;;;33.83;;
13941;SDS011;7043;51.630;7.254;2023-05-07T00:21:06;38.10;;;34.50;;
13941;SDS011;7043;51.630;7.254;2023-05-07T00:23:32;36.03;;;32.60;;
13941;SDS011;7043;51.630;7.254;2023-05-07T00:25:58;37.33;;;34.03;;
13941;SDS011;7043;51.630;7.254;2023-05-07T00:28:24;39.27;;;35.67;;
13941;SDS011;7043;51.630;7.254;2023-05-07T00:30:50;38.97;;;35.30;;
13941;SDS011;7043;51.630;7.254;2023-05-07T00:33:16;39.47;;;35.77;;
13941;SDS011;7043;51.630;7.254;2023-05-07T00:35:42;40.20;;;36.50;;
13941;SDS011;7043;51.630;7.254;2023-05-07T00:38:08;42.40;;;38.20;;
13941;SDS011;7043;51.630;7.254;2023-05-07T00:40:34;41.27;;;37.47;;
13941;SDS011;7043;51.630;7.254;2023-05-07T00:43:00;42.40;;;38.30;;
13941;SDS011;7043;51.630;7.254;2023-05-07T00:45:26;44.27;;;40.17;;
13941;SDS011;7043;51.630;7.254;2023-05-07T00:47:54;43.77;;;39.63;;
13941;SDS011;7043;51.630;7.254;2023-05-07T00:50:20;43.20;;;39.20;;
13941;SDS011;7043;51.630;7.254;2023-05-07T00:52:47;45.43;;;41.10;;
13941;SDS011;7043;51.630;7.254;2023-05-07T00:55:13;44.20;;;40.00;;
13941;SDS011;7043;51.630;7.254;2023-05-07T00:57:40;45.50;;;41.17;;
13941;SDS011;7043;51.630;7.254;2023-05-07T01:00:07;45.00;;;40.70;;
13941;SDS011;7043;51.630;7.254;2023-05-07T01:02:34;44.73;;;40.43;;
13941;SDS011;7043;51.630;7.254;2023-05-07T01:05:01;46.03;;;41.73;;
13941;SDS011;7043;51.630;7.254;2023-05-07T01:07:28;45.97;;;41.57;;
13941;SDS011;7043;51.630;7.254;2023-05-07T01:09:54;44.10;;;39.90;;
13941;SDS011;7043;51.630;7.254;2023-05-07T01:12:20;45.47;;;41.07;;
13941;SDS011;7043;51.630;7.254;2023-05-07T01:14:46;47.97;;;43.27;;
13941;SDS011;7043;51.630;7.254;2023-05-07T01:17:14;46.63;;;42.23;;
13941;SDS011;7043;51.630;7.254;2023-05-07T01:19:40;47.03;;;42.43;;
13941;SDS011;7043;51.630;7.254;2023-05-07T01:22:08;45.47;;;41.13;;
13941;SDS011;7043;51.630;7.254;2023-05-07T01:24:36;46.73;;;42.23;;
13941;SDS011;7043;51.630;7.254;2023-05-07T01:27:02;46.40;;;42.10;;
13941;SDS011;7043;51.630;7.254;2023-05-07T01:29:28;44.83;;;40.73;;
13941;SDS011;7043;51.630;7.254;2023-05-07T01:31:56;42.83;;;38.73;;
13941;SDS011;7043;51.630;7.254;2023-05-07T01:34:22;43.83;;;39.57;;
13941;SDS011;7043;51.630;7.254;2023-05-07T01:36:50;45.40;;;41.07;;
13941;SDS011;7043;51.630;7.254;2023-05-07T01:39:17;45.30;;;41.00;;
13941;SDS011;7043;51.630;7.254;2023-05-07T01:41:43;45.43;;;41.03;;
13941;SDS011;7043;51.630;7.254;2023-05-07T01:44:10;47.63;;;43.03;;
13941;SDS011;7043;51.630;7.254;2023-05-07T01:46:36;44.43;;;40.30;;
13941;SDS011;7043;51.630;7.254;2023-05-07T01:49:02;45.57;;;41.37;;
13941;SDS011;7043;51.630;7.254;2023-05-07T01:51:29;46.83;;;42.23;;
13941;SDS011;7043;51.630;7.254;2023-05-07T01:53:55;48.73;;;43.97;;
13941;SDS011;7043;51.630;7.254;2023-05-07T01:56:21;48.07;;;43.30;;
13941;SDS011;7043;51.630;7.254;2023-05-07T01:58:47;47.20;;;42.63;;
13941;SDS011;7043;51.630;7.254;2023-05-07T02:01:13;46.40;;;41.73;;
13941;SDS011;7043;51.630;7.254;2023-05-07T02:03:39;46.90;;;42.30;;
13941;SDS011;7043;51.630;7.254;2023-05-07T02:06:05;46.53;;;42.13;;
13941;SDS011;7043;51.630;7.254;2023-05-07T02:08:31;49.43;;;44.43;;
13941;SDS011;7043;51.630;7.254;2023-05-07T02:10:57;46.47;;;41.93;;
13941;SDS011;7043;51.630;7.254;2023-05-07T02:13:23;45.47;;;41.20;;
13941;SDS011;7043;51.630;7.254;2023-05-07T02:15:49;44.90;;;40.53;;
13941;SDS011;7043;51.630;7.254;2023-05-07T02:18:15;47.57;;;43.17;;
13941;SDS011;7043;51.630;7.254;2023-05-07T02:20:42;45.77;;;41.33;;
13941;SDS011;7043;51.630;7.254;2023-05-07T02:23:08;47.67;;;43.07;;
13941;SDS011;7043;51.630;7.254;2023-05-07T02:25:34;45.80;;;41.20;;
13941;SDS011;7043;51.630;7.254;2023-05-07T02:28:00;45.23;;;40.83;;
13941;SDS011;7043;51.630;7.254;2023-05-07T02:30:26;43.33;;;39.13;;
13941;SDS011;7043;51.630;7.254;2023-05-07T02:32:52;45.20;;;40.83;;
13941;SDS011;7043;51.630;7.254;2023-05-07T02:35:18;43.50;;;39.37;;
13941;SDS011;7043;51.630;7.254;2023-05-07T02:37:44;45.33;;;41.03;;
13941;SDS011;7043;51.630;7.254;2023-05-07T02:40:10;46.20;;;41.77;;
13941;SDS011;7043;51.630;7.254;2023-05-07T02:42:36;47.30;;;42.43;;
13941;SDS011;7043;51.630;7.254;2023-05-07T02:45:02;46.83;;;42.33;;
13941;SDS011;7043;51.630;7.254;2023-05-07T02:47:28;49.07;;;44.30;;
13941;SDS011;7043;51.630;7.254;2023-05-07T02:49:54;49.27;;;44.37;;
13941;SDS011;7043;51.630;7.254;2023-05-07T02:52:21;50.70;;;45.47;;
13941;SDS011;7043;51.630;7.254;2023-05-07T02:54:47;51.47;;;46.07;;
13941;SDS011;7043;51.630;7.254;2023-05-07T02:57:13;51.43;;;46.43;;
13941;SDS011;7043;51.630;7.254;2023-05-07T02:59:39;52.43;;;47.23;;
13941;SDS011;7043;51.630;7.254;2023-05-07T03:02:05;51.77;;;46.67;;
13941;SDS011;7043;51.630;7.254;2023-05-07T03:04:31;52.80;;;47.50;;
13941;SDS011;7043;51.630;7.254;2023-05-07T03:06:57;51.57;;;46.33;;
13941;SDS011;7043;51.630;7.254;2023-05-07T03:09:23;51.70;;;46.73;;
13941;SDS011;7043;51.630;7.254;2023-05-07T03:11:49;53.30;;;48.10;;
13941;SDS011;7043;51.630;7.254;2023-05-07T03:14:15;52.33;;;47.03;;
13941;SDS011;7043;51.630;7.254;2023-05-07T03:16:41;50.83;;;45.70;;
13941;SDS011;7043;51.630;7.254;2023-05-07T03:19:07;52.20;;;47.17;;
13941;SDS011;7043;51.630;7.254;2023-05-07T03:21:33;50.60;;;45.67;;
13941;SDS011;7043;51.630;7.254;2023-05-07T03:23:59;51.63;;;46.60;;
13941;SDS011;7043;51.630;7.254;2023-05-07T03:26:25;53.17;;;47.87;;
13941;SDS011;7043;51.630;7.254;2023-05-07T03:28:51;53.00;;;47.70;;
13941;SDS011;7043;51.630;7.254;2023-05-07T03:31:17;51.63;;;46.60;;
13941;SDS011;7043;51.630;7.254;2023-05-07T03:33:50;53.60;;;48.27;;
13941;SDS011;7043;51.630;7.254;2023-05-07T03:36:16;52.37;;;47.10;;
13941;SDS011;7043;51.630;7.254;2023-05-07T03:38:42;54.70;;;49.07;;
13941;SDS011;7043;51.630;7.254;2023-05-07T03:41:08;52.93;;;47.63;;
13941;SDS011;7043;51.630;7.254;2023-05-07T03:43:34;53.63;;;48.20;;
13941;SDS011;7043;51.630;7.254;2023-05-07T03:46:00;52.13;;;46.93;;
13941;SDS011;7043;51.630;7.254;2023-05-07T03:48:26;50.43;;;45.43;;
13941;SDS011;7043;51.630;7.254;2023-05-07T03:50:52;52.07;;;46.67;;
13941;SDS011;7043;51.630;7.254;2023-05-07T03:53:18;48.47;;;43.57;;
13941;SDS011;7043;51.630;7.254;2023-05-07T03:55:44;50.00;;;45.00;;
13941;SDS011;7043;51.630;7.254;2023-05-07T03:58:10;47.27;;;42.70;;
13941;SDS011;7043;51.630;7.254;2023-05-07T04:00:36;47.07;;;42.50;;
13941;SDS011;7043;51.630;7.254;2023-05-07T04:03:04;48.60;;;43.77;;
13941;SDS011;7043;51.630;7.254;2023-05-07T04:05:30;48.83;;;43.83;;
13941;SDS011;7043;51.630;7.254;2023-05-07T04:07:59;45.63;;;41.03;;
13941;SDS011;7043;51.630;7.254;2023-05-07T04:10:26;47.63;;;42.87;;
13941;SDS011;7043;51.630;7.254;2023-05-07T04:12:53;49.10;;;44.37;;
13941;SDS011;7043;51.630;7.254;2023-05-07T04:15:19;45.07;;;40.67;;
13941;SDS011;7043;51.630;7.254;2023-05-07T04:17:45;47.93;;;43.10;;
13941;SDS011;7043;51.630;7.254;2023-05-07T04:20:14;47.97;;;43.17;;
13941;SDS011;7043;51.630;7.254;2023-05-07T04:22:40;48.17;;;43.57;;
13941;SDS011;7043;51.630;7.254;2023-05-07T04:25:07;46.40;;;41.80;;
13941;SDS011;7043;51.630;7.254;2023-05-07T04:27:34;46.17;;;41.57;;
13941;SDS011;7043;51.630;7.254;2023-05-07T04:30:00;44.37;;;40.30;;
13941;SDS011;7043;51.630;7.254;2023-05-07T04:32:27;44.23;;;40.03;;
13941;SDS011;7043;51.630;7.254;2023-05-07T04:34:54;43.33;;;39.00;;
13941;SDS011;7043;51.630;7.254;2023-05-07T04:37:20;42.27;;;38.27;;
13941;SDS011;7043;51.630;7.254;2023-05-07T04:39:46;42.67;;;38.57;;
13941;SDS011;7043;51.630;7.254;2023-05-07T04:42:15;41.97;;;37.87;;
13941;SDS011;7043;51.630;7.254;2023-05-07T04:44:43;44.23;;;39.93;;
13941;SDS011;7043;51.630;7.254;2023-05-07T04:47:09;42.77;;;38.63;;
13941;SDS011;7043;51.630;7.254;2023-05-07T04:49:35;41.03;;;37.10;;
13941;SDS011;7043;51.630;7.254;2023-05-07T04:52:01;40.50;;;36.60;;
13941;SDS011;7043;51.630;7.254;2023-05-07T04:54:28;42.20;;;38.00;;
13941;SDS011;7043;51.630;7.254;2023-05-07T04:56:54;39.43;;;35.60;;
13941;SDS011;7043;51.630;7.254;2023-05-07T04:59:20;38.83;;;35.10;;
13941;SDS011;7043;51.630;7.254;2023-05-07T05:01:46;37.43;;;33.70;;
13941;SDS011;7043;51.630;7.254;2023-05-07T05:04:12;36.53;;;33.13;;
13941;SDS011;7043;51.630;7.254;2023-05-07T05:06:38;34.67;;;31.37;;
13941;SDS011;7043;51.630;7.254;2023-05-07T05:09:05;33.73;;;30.33;;
13941;SDS011;7043;51.630;7.254;2023-05-07T05:11:31;35.53;;;32.20;;
13941;SDS011;7043;51.630;7.254;2023-05-07T05:13:58;30.67;;;27.97;;
13941;SDS011;7043;51.630;7.254;2023-05-07T05:16:24;28.70;;;25.87;;
13941;SDS011;7043;51.630;7.254;2023-05-07T05:18:50;28.13;;;25.57;;
13941;SDS011;7043;51.630;7.254;2023-05-07T05:21:17;25.20;;;22.90;;
13941;SDS011;7043;51.630;7.254;2023-05-07T05:23:43;27.60;;;25.00;;
13941;SDS011;7043;51.630;7.254;2023-05-07T05:26:09;26.90;;;24.40;;
13941;SDS011;7043;51.630;7.254;2023-05-07T05:28:35;26.43;;;24.00;;
13941;SDS011;7043;51.630;7.254;2023-05-07T05:31:01;26.33;;;23.73;;
13941;SDS011;7043;51.630;7.254;2023-05-07T05:33:27;25.63;;;23.13;;
13941;SDS011;7043;51.630;7.254;2023-05-07T05:35:53;26.13;;;23.63;;
13941;SDS011;7043;51.630;7.254;2023-05-07T05:38:19;25.67;;;23.27;;
13941;SDS011;7043;51.630;7.254;2023-05-07T05:40:46;24.90;;;22.43;;
13941;SDS011;7043;51.630;7.254;2023-05-07T05:43:12;24.57;;;22.13;;
13941;SDS011;7043;51.630;7.254;2023-05-07T05:45:38;24.73;;;22.33;;
13941;SDS011;7043;51.630;7.254;2023-05-07T05:48:04;24.33;;;22.03;;
13941;SDS011;7043;51.630;7.254;2023-05-07T05:50:30;24.63;;;22.23;;
13941;SDS011;7043;51.630;7.254;2023-05-07T05:52:56;25.03;;;22.57;;
13941;SDS011;7043;51.630;7.254;2023-05-07T05:55:22;21.97;;;20.00;;
13941;SDS011;7043;51.630;7.254;2023-05-07T05:57:49;24.03;;;21.53;;
13941;SDS011;7043;51.630;7.254;2023-05-07T06:00:15;22.83;;;20.63;;
13941;SDS011;7043;51.630;7.254;2023-05-07T06:02:41;22.17;;;20.07;;
13941;SDS011;7043;51.630;7.254;2023-05-07T06:05:07;22.83;;;20.57;;
13941;SDS011;7043;51.630;7.254;2023-05-07T06:07:34;21.30;;;19.23;;
13941;SDS011;7043;51.630;7.254;2023-05-07T06:10:00;22.93;;;20.53;;
13941;SDS011;7043;51.630;7.254;2023-05-07T06:12:26;21.90;;;19.60;;
13941;SDS011;7043;51.630;7.254;2023-05-07T06:14:52;22.13;;;19.63;;
13941;SDS011;7043;51.630;7.254;2023-05-07T06:17:18;21.40;;;19.30;;
13941;SDS011;7043;51.630;7.254;2023-05-07T06:19:44;21.70;;;19.40;;
13941;SDS011;7043;51.630;7.254;2023-05-07T06:22:10;22.00;;;17.77;;
13941;SDS011;7043;51.630;7.254;2023-05-07T06:24:36;21.93;;;18.53;;
13941;SDS011;7043;51.630;7.254;2023-05-07T06:27:02;20.53;;;18.03;;
13941;SDS011;7043;51.630;7.254;2023-05-07T06:29:28;19.60;;;17.00;;
13941;SDS011;7043;51.630;7.254;2023-05-07T06:32:05;18.53;;;16.70;;
13941;SDS011;7043;51.630;7.254;2023-05-07T06:34:31;17.87;;;16.07;;
13941;SDS011;7043;51.630;7.254;2023-05-07T06:36:57;17.63;;;15.83;;
13941;SDS011;7043;51.630;7.254;2023-05-07T06:39:23;18.30;;;15.83;;
13941;SDS011;7043;51.630;7.254;2023-05-07T06:41:49;18.07;;;16.20;;
13941;SDS011;7043;51.630;7.254;2023-05-07T06:44:15;19.37;;;16.23;;
13941;SDS011;7043;51.630;7.254;2023-05-07T06:46:41;16.63;;;15.00;;
13941;SDS011;7043;51.630;7.254;2023-05-07T06:49:07;16.97;;;15.37;;
13941;SDS011;7043;51.630;7.254;2023-05-07T06:51:33;17.67;;;15.87;;
13941;SDS011;7043;51.630;7.254;2023-05-07T06:53:59;17.60;;;16.00;;
13941;SDS011;7043;51.630;7.254;2023-05-07T06:56:25;16.60;;;14.90;;
13941;SDS011;7043;51.630;7.254;2023-05-07T06:58:51;17.60;;;15.90;;
13941;SDS011;7043;51.630;7.254;2023-05-07T07:01:17;17.50;;;15.90;;
13941;SDS011;7043;51.630;7.254;2023-05-07T07:03:43;18.10;;;16.30;;
13941;SDS011;7043;51.630;7.254;2023-05-07T07:06:09;18.67;;;16.87;;
13941;SDS011;7043;51.630;7.254;2023-05-07T07:08:35;19.00;;;17.20;;
13941;SDS011;7043;51.630;7.254;2023-05-07T07:11:03;18.37;;;16.57;;
13941;SDS011;7043;51.630;7.254;2023-05-07T07:13:29;16.63;;;15.13;;
13941;SDS011;7043;51.630;7.254;2023-05-07T07:15:55;18.47;;;16.67;;
13941;SDS011;7043;51.630;7.254;2023-05-07T07:18:21;18.37;;;16.53;;
13941;SDS011;7043;51.630;7.254;2023-05-07T07:20:47;17.17;;;15.60;;
13941;SDS011;7043;51.630;7.254;2023-05-07T07:23:13;18.43;;;16.73;;
13941;SDS011;7043;51.630;7.254;2023-05-07T07:25:39;18.67;;;16.97;;
13941;SDS011;7043;51.630;7.254;2023-05-07T07:28:06;18.97;;;17.17;;
13941;SDS011;7043;51.630;7.254;2023-05-07T07:30:32;18.47;;;16.77;;
13941;SDS011;7043;51.630;7.254;2023-05-07T07:32:58;17.87;;;16.17;;
13941;SDS011;7043;51.630;7.254;2023-05-07T07:35:28;18.30;;;16.60;;
13941;SDS011;7043;51.630;7.254;2023-05-07T07:37:54;18.17;;;16.43;;
13941;SDS011;7043;51.630;7.254;2023-05-07T07:40:20;17.83;;;16.23;;
13941;SDS011;7043;51.630;7.254;2023-05-07T07:42:46;20.07;;;18.10;;
13941;SDS011;7043;51.630;7.254;2023-05-07T07:45:12;18.77;;;17.07;;
13941;SDS011;7043;51.630;7.254;2023-05-07T07:47:38;18.93;;;17.13;;
13941;SDS011;7043;51.630;7.254;2023-05-07T07:50:04;19.83;;;17.83;;
13941;SDS011;7043;51.630;7.254;2023-05-07T07:52:30;19.33;;;17.53;;
13941;SDS011;7043;51.630;7.254;2023-05-07T07:54:56;18.83;;;17.03;;
13941;SDS011;7043;51.630;7.254;2023-05-07T07:57:22;19.90;;;17.80;;
13941;SDS011;7043;51.630;7.254;2023-05-07T07:59:49;18.30;;;16.40;;
13941;SDS011;7043;51.630;7.254;2023-05-07T08:02:15;17.60;;;15.90;;
13941;SDS011;7043;51.630;7.254;2023-05-07T08:04:41;18.75;;;16.98;;
13941;SDS011;7043;51.630;7.254;2023-05-07T08:07:10;17.95;;;16.25;;
13941;SDS011;7043;51.630;7.254;2023-05-07T08:09:37;17.90;;;16.20;;
13941;SDS011;7043;51.630;7.254;2023-05-07T08:12:03;16.90;;;15.40;;
13941;SDS011;7043;51.630;7.254;2023-05-07T08:14:29;18.35;;;16.63;;
13941;SDS011;7043;51.630;7.254;2023-05-07T08:16:55;20.00;;;17.15;;
13941;SDS011;7043;51.630;7.254;2023-05-07T08:19:21;17.33;;;15.83;;
13941;SDS011;7043;51.630;7.254;2023-05-07T08:21:47;17.50;;;15.90;;
13941;SDS011;7043;51.630;7.254;2023-05-07T08:24:14;18.90;;;17.10;;
13941;SDS011;7043;51.630;7.254;2023-05-07T08:26:40;17.40;;;15.80;;
13941;SDS011;7043;51.630;7.254;2023-05-07T08:29:06;19.10;;;17.30;;
13941;SDS011;7043;51.630;7.254;2023-05-07T08:31:32;20.47;;;18.57;;
13941;SDS011;7043;51.630;7.254;2023-05-07T08:33:58;19.08;;;17.40;;
13941;SDS011;7043;51.630;7.254;2023-05-07T08:36:25;20.42;;;18.63;;
13941;SDS011;7043;51.630;7.254;2023-05-07T08:38:51;20.77;;;18.83;;
13941;SDS011;7043;51.630;7.254;2023-05-07T08:41:18;20.48;;;18.45;;
13941;SDS011;7043;51.630;7.254;2023-05-07T08:43:47;21.05;;;18.98;;
13941;SDS011;7043;51.630;7.254;2023-05-07T08:46:18;21.80;;;19.67;;
13941;SDS011;7043;51.630;7.254;2023-05-07T08:48:44;19.75;;;17.85;;
13941;SDS011;7043;51.630;7.254;2023-05-07T08:51:14;20.85;;;18.95;;
13941;SDS011;7043;51.630;7.254;2023-05-07T08:53:41;20.25;;;18.45;;
13941;SDS011;7043;51.630;7.254;2023-05-07T08:56:08;21.13;;;19.17;;
13941;SDS011;7043;51.630;7.254;2023-05-07T08:58:34;21.13;;;19.30;;
13941;SDS011;7043;51.630;7.254;2023-05-07T09:01:07;22.30;;;20.30;;
13941;SDS011;7043;51.630;7.254;2023-05-07T09:03:33;22.08;;;20.05;;
13941;SDS011;7043;51.630;7.254;2023-05-07T09:05:59;22.80;;;20.65;;
13941;SDS011;7043;51.630;7.254;2023-05-07T09:08:28;22.52;;;20.33;;
13941;SDS011;7043;51.630;7.254;2023-05-07T09:10:54;21.30;;;19.25;;
13941;SDS011;7043;51.630;7.254;2023-05-07T09:13:20;21.02;;;18.80;;
13941;SDS011;7043;51.630;7.254;2023-05-07T09:15:46;21.60;;;19.35;;
13941;SDS011;7043;51.630;7.254;2023-05-07T09:18:12;21.80;;;19.70;;
13941;SDS011;7043;51.630;7.254;2023-05-07T09:20:39;20.30;;;18.50;;
13941;SDS011;7043;51.630;7.254;2023-05-07T09:23:08;22.38;;;20.00;;
13941;SDS011;7043;51.630;7.254;2023-05-07T09:25:34;22.38;;;20.17;;
13941;SDS011;7043;51.630;7.254;2023-05-07T09:28:01;21.35;;;19.35;;
13941;SDS011;7043;51.630;7.254;2023-05-07T09:30:31;21.40;;;19.30;;
13941;SDS011;7043;51.630;7.254;2023-05-07T09:33:01;22.30;;;20.20;;
13941;SDS011;7043;51.630;7.254;2023-05-07T09:35:27;21.52;;;19.55;;
13941;SDS011;7043;51.630;7.254;2023-05-07T09:37:53;21.58;;;19.60;;
13941;SDS011;7043;51.630;7.254;2023-05-07T09:40:24;19.75;;;17.95;;
13941;SDS011;7043;51.630;7.254;2023-05-07T09:42:50;20.25;;;18.27;;
13941;SDS011;7043;51.630;7.254;2023-05-07T09:45:26;20.40;;;18.50;;
13941;SDS011;7043;51.630;7.254;2023-05-07T09:47:56;18.40;;;16.75;;
13941;SDS011;7043;51.630;7.254;2023-05-07T09:50:28;19.65;;;17.70;;
13941;SDS011;7043;51.630;7.254;2023-05-07T09:52:55;18.67;;;16.98;;
13941;SDS011;7043;51.630;7.254;2023-05-07T09:55:21;18.75;;;17.08;;
13941;SDS011;7043;51.630;7.254;2023-05-07T09:57:52;18.63;;;16.77;;
13941;SDS011;7043;51.630;7.254;2023-05-07T10:00:21;17.40;;;15.70;;
13941;SDS011;7043;51.630;7.254;2023-05-07T10:02:52;15.65;;;14.10;;
13941;SDS011;7043;51.630;7.254;2023-05-07T10:05:18;16.08;;;14.68;;
13941;SDS011;7043;51.630;7.254;2023-05-07T10:07:48;20.10;;;18.25;;
13941;SDS011;7043;51.630;7.254;2023-05-07T10:10:14;20.60;;;18.70;;
13941;SDS011;7043;51.630;7.254;2023-05-07T10:12:41;20.27;;;18.35;;
13941;SDS011;7043;51.630;7.254;2023-05-07T10:15:10;16.73;;;15.23;;
13941;SDS011;7043;51.630;7.254;2023-05-07T10:17:37;16.27;;;14.77;;
13941;SDS011;7043;51.630;7.254;2023-05-07T10:20:03;17.73;;;16.13;;
13941;SDS011;7043;51.630;7.254;2023-05-07T10:22:31;15.13;;;13.82;;
13941;SDS011;7043;51.630;7.254;2023-05-07T10:24:58;16.45;;;15.02;;
13941;SDS011;7043;51.630;7.254;2023-05-07T10:27:25;15.27;;;13.88;;
13941;SDS011;7043;51.630;7.254;2023-05-07T10:30:01;13.48;;;12.23;;
13941;SDS011;7043;51.630;7.254;2023-05-07T10:34:58;12.95;;;11.75;;
13941;SDS011;7043;51.630;7.254;2023-05-07T10:37:25;11.35;;;10.25;;
13941;SDS011;7043;51.630;7.254;2023-05-07T10:39:52;12.85;;;11.55;;
13941;SDS011;7043;51.630;7.254;2023-05-07T10:42:18;14.88;;;13.50;;
13941;SDS011;7043;51.630;7.254;2023-05-07T10:44:44;14.45;;;13.15;;
13941;SDS011;7043;51.630;7.254;2023-05-07T10:47:11;13.85;;;12.45;;
13941;SDS011;7043;51.630;7.254;2023-05-07T10:52:20;11.15;;;10.13;;
13941;SDS011;7043;51.630;7.254;2023-05-07T10:54:46;15.27;;;13.88;;
13941;SDS011;7043;51.630;7.254;2023-05-07T10:59:57;15.30;;;13.80;;
13941;SDS011;7043;51.630;7.254;2023-05-07T11:02:23;14.18;;;12.82;;
13941;SDS011;7043;51.630;7.254;2023-05-07T11:07:33;14.15;;;12.95;;
13941;SDS011;7043;51.630;7.254;2023-05-07T11:10:00;14.13;;;12.82;;
13941;SDS011;7043;51.630;7.254;2023-05-07T11:15:07;15.13;;;13.63;;
13941;SDS011;7043;51.630;7.254;2023-05-07T11:17:34;13.80;;;12.50;;
13941;SDS011;7043;51.630;7.254;2023-05-07T11:20:00;15.57;;;14.18;;
13941;SDS011;7043;51.630;7.254;2023-05-07T11:24:56;15.60;;;14.15;;
13941;SDS011;7043;51.630;7.254;2023-05-07T11:27:26;14.93;;;13.63;;
13941;SDS011;7043;51.630;7.254;2023-05-07T11:29:52;15.82;;;14.18;;
13941;SDS011;7043;51.630;7.254;2023-05-07T11:32:28;14.57;;;13.27;;
13941;SDS011;7043;51.630;7.254;2023-05-07T11:34:54;14.15;;;12.88;;
13941;SDS011;7043;51.630;7.254;2023-05-07T11:37:20;14.23;;;12.82;;
13941;SDS011;7043;51.630;7.254;2023-05-07T11:39:47;13.93;;;12.63;;
13941;SDS011;7043;51.630;7.254;2023-05-07T11:42:29;14.15;;;12.82;;
13941;SDS011;7043;51.630;7.254;2023-05-07T11:44:55;14.25;;;12.95;;
13941;SDS011;7043;51.630;7.254;2023-05-07T11:47:21;14.48;;;13.07;;
13941;SDS011;7043;51.630;7.254;2023-05-07T11:49:48;13.13;;;11.82;;
13941;SDS011;7043;51.630;7.254;2023-05-07T11:52:14;12.05;;;10.95;;
13941;SDS011;7043;51.630;7.254;2023-05-07T11:54:40;13.93;;;12.73;;
13941;SDS011;7043;51.630;7.254;2023-05-07T11:57:14;12.75;;;11.55;;
13941;SDS011;7043;51.630;7.254;2023-05-07T11:59:40;13.25;;;12.05;;
13941;SDS011;7043;51.630;7.254;2023-05-07T12:02:06;13.02;;;11.80;;
13941;SDS011;7043;51.630;7.254;2023-05-07T12:04:35;14.75;;;13.40;;
13941;SDS011;7043;51.630;7.254;2023-05-07T12:07:01;16.17;;;14.77;;
13941;SDS011;7043;51.630;7.254;2023-05-07T12:09:28;14.85;;;13.45;;
13941;SDS011;7043;51.630;7.254;2023-05-07T12:11:54;14.65;;;13.40;;
13941;SDS011;7043;51.630;7.254;2023-05-07T12:14:21;15.52;;;14.13;;
13941;SDS011;7043;51.630;7.254;2023-05-07T12:16:47;17.30;;;15.80;;
13941;SDS011;7043;51.630;7.254;2023-05-07T12:19:13;12.70;;;11.50;;
13941;SDS011;7043;51.630;7.254;2023-05-07T12:21:39;13.75;;;12.45;;
13941;SDS011;7043;51.630;7.254;2023-05-07T12:24:08;12.60;;;11.40;;
13941;SDS011;7043;51.630;7.254;2023-05-07T12:26:37;13.82;;;12.50;;
13941;SDS011;7043;51.630;7.254;2023-05-07T12:29:04;12.35;;;11.25;;
13941;SDS011;7043;51.630;7.254;2023-05-07T12:31:30;12.07;;;10.90;;
13941;SDS011;7043;51.630;7.254;2023-05-07T12:33:56;13.57;;;12.27;;
13941;SDS011;7043;51.630;7.254;2023-05-07T12:36:22;13.55;;;12.23;;
13941;SDS011;7043;51.630;7.254;2023-05-07T12:38:51;15.10;;;13.75;;
13941;SDS011;7043;51.630;7.254;2023-05-07T12:41:17;15.10;;;13.70;;
13941;SDS011;7043;51.630;7.254;2023-05-07T12:43:44;12.85;;;11.70;;
13941;SDS011;7043;51.630;7.254;2023-05-07T12:46:13;13.75;;;12.40;;
13941;SDS011;7043;51.630;7.254;2023-05-07T12:48:45;13.82;;;12.50;;
13941;SDS011;7043;51.630;7.254;2023-05-07T12:51:11;13.95;;;12.65;;
13941;SDS011;7043;51.630;7.254;2023-05-07T12:53:41;13.82;;;12.63;;
13941;SDS011;7043;51.630;7.254;2023-05-07T12:56:10;13.07;;;11.93;;
13941;SDS011;7043;51.630;7.254;2023-05-07T12:58:39;12.60;;;11.43;;
13941;SDS011;7043;51.630;7.254;2023-05-07T13:01:06;13.02;;;11.52;;
13941;SDS011;7043;51.630;7.254;2023-05-07T13:03:33;13.63;;;12.32;;
13941;SDS011;7043;51.630;7.254;2023-05-07T13:06:00;12.48;;;11.35;;
13941;SDS011;7043;51.630;7.254;2023-05-07T13:10:56;12.07;;;10.90;;
13941;SDS011;7043;51.630;7.254;2023-05-07T13:13:22;13.15;;;11.85;;
13941;SDS011;7043;51.630;7.254;2023-05-07T13:15:48;12.50;;;11.40;;
13941;SDS011;7043;51.630;7.254;2023-05-07T13:18:14;12.63;;;11.43;;
13941;SDS011;7043;51.630;7.254;2023-05-07T13:20:40;11.82;;;10.82;;
13941;SDS011;7043;51.630;7.254;2023-05-07T13:23:06;13.45;;;12.13;;
13941;SDS011;7043;51.630;7.254;2023-05-07T13:25:32;11.55;;;10.55;;
13941;SDS011;7043;51.630;7.254;2023-05-07T13:27:58;11.77;;;10.63;;
13941;SDS011;7043;51.630;7.254;2023-05-07T13:30:24;10.73;;;9.73;;
13941;SDS011;7043;51.630;7.254;2023-05-07T13:32:54;10.25;;;9.38;;
13941;SDS011;7043;51.630;7.254;2023-05-07T13:35:21;10.20;;;9.20;;
13941;SDS011;7043;51.630;7.254;2023-05-07T13:37:47;11.55;;;10.30;;
13941;SDS011;7043;51.630;7.254;2023-05-07T13:40:14;11.95;;;10.85;;
13941;SDS011;7043;51.630;7.254;2023-05-07T13:42:40;11.60;;;10.52;;
13941;SDS011;7043;51.630;7.254;2023-05-07T13:45:06;11.60;;;10.48;;
13941;SDS011;7043;51.630;7.254;2023-05-07T13:47:32;11.35;;;10.25;;
13941;SDS011;7043;51.630;7.254;2023-05-07T13:49:58;11.05;;;10.05;;
13941;SDS011;7043;51.630;7.254;2023-05-07T13:52:24;11.07;;;9.95;;
13941;SDS011;7043;51.630;7.254;2023-05-07T13:54:51;10.38;;;9.38;;
13941;SDS011;7043;51.630;7.254;2023-05-07T13:57:17;10.80;;;9.80;;
13941;SDS011;7043;51.630;7.254;2023-05-07T13:59:43;10.45;;;9.45;;
13941;SDS011;7043;51.630;7.254;2023-05-07T14:02:09;11.15;;;10.15;;
13941;SDS011;7043;51.630;7.254;2023-05-07T14:04:37;9.57;;;8.75;;
13941;SDS011;7043;51.630;7.254;2023-05-07T14:07:03;10.00;;;9.10;;
13941;SDS011;7043;51.630;7.254;2023-05-07T14:09:30;10.35;;;9.23;;
13941;SDS011;7043;51.630;7.254;2023-05-07T14:11:56;10.65;;;9.02;;
13941;SDS011;7043;51.630;7.254;2023-05-07T14:14:21;9.80;;;8.90;;
13941;SDS011;7043;51.630;7.254;2023-05-07T14:16:47;9.27;;;8.38;;
13941;SDS011;7043;51.630;7.254;2023-05-07T14:19:13;9.32;;;8.48;;
13941;SDS011;7043;51.630;7.254;2023-05-07T14:21:40;9.32;;;8.50;;
13941;SDS011;7043;51.630;7.254;2023-05-07T14:24:06;9.50;;;8.60;;
13941;SDS011;7043;51.630;7.254;2023-05-07T14:26:33;8.80;;;7.88;;
13941;SDS011;7043;51.630;7.254;2023-05-07T14:28:59;8.77;;;7.97;;
13941;SDS011;7043;51.630;7.254;2023-05-07T14:31:25;7.82;;;7.07;;
13941;SDS011;7043;51.630;7.254;2023-05-07T14:33:51;7.60;;;6.80;;
13941;SDS011;7043;51.630;7.254;2023-05-07T14:36:18;8.35;;;7.55;;
13941;SDS011;7043;51.630;7.254;2023-05-07T14:38:46;8.63;;;7.82;;
13941;SDS011;7043;51.630;7.254;2023-05-07T14:41:12;9.43;;;8.45;;
13941;SDS011;7043;51.630;7.254;2023-05-07T14:43:38;9.90;;;9.00;;
13941;SDS011;7043;51.630;7.254;2023-05-07T14:46:04;9.80;;;8.98;;
13941;SDS011;7043;51.630;7.254;2023-05-07T14:48:29;9.90;;;9.00;;
13941;SDS011;7043;51.630;7.254;2023-05-07T14:50:55;9.23;;;8.40;;